Time;durP1;ratioP1;P1;durP2;ratioP2;P2;SDS_P1;SDS_P2;PMS_P1;PMS_P2;Temp;Humidity;BMP_temperature;BMP_pressure;BME280_temperature;BME280_humidity;BME280_pressure;Samples;Min_cycle;Max_cycle;Signal;HPM_P1;HPM_P2
2021/10/09 00:01:50;;;;;;;;;;;;;;;5.75;66.14;99547.92;1636208;86;21951;-85
2021/10/09 00:04:16;;;;;;;;;;;;;;;5.78;66.25;99549.14;1605489;88;25730;-85
2021/10/09 00:06:43;;;;;;;;;;;;;;;5.70;66.26;99545.48;1619609;87;24599;-84
2021/10/09 00:09:10;;;;;;;;;;;;;;;5.71;66.30;99545.03;1619188;87;20621;-85
2021/10/09 00:11:38;;;;;;;;;;;;;;;5.79;66.34;99534.78;1618148;87;24852;-87
2021/10/09 00:14:09;;;;;;;;;;;;;;;5.74;66.38;99542.32;1616990;87;22061;-85
2021/10/09 00:16:35;;;;;;;;;;;;;;;5.70;66.42;99533.80;1618635;87;26201;-88
2021/10/09 00:19:02;;;;;;;;;;;;;;;5.80;66.48;99535.63;1617471;87;24446;-88
2021/10/09 00:21:29;;;;;;;;;;;;;;;5.70;66.50;99534.24;1605212;88;20166;-84
2021/10/09 00:23:57;;;;;;;;;;;;;;;5.51;66.47;99533.97;1617677;87;24806;-84
2021/10/09 00:26:24;;;;;;;;;;;;;;;5.42;66.43;99541.61;1618271;88;22002;-88
2021/10/09 00:28:50;;;;;;;;;;;;;;;5.31;66.40;99537.20;1619278;87;25960;-84
2021/10/09 00:31:16;;;;;;;;;;;;;;;5.11;66.38;99527.89;1616954;87;24566;-86
2021/10/09 00:33:42;;;;;;;;;;;;;;;4.89;66.34;99535.91;1618899;87;20553;-86
2021/10/09 00:36:09;;;;;;;;;;;;;;;4.70;66.30;99534.72;1618582;87;24730;-86
2021/10/09 00:38:35;;;;;;;;;;;;;;;4.60;66.31;99536.28;1618303;88;22370;-85
2021/10/09 00:41:02;;;;;;;;;;;;;;;4.54;66.34;99531.72;1617714;87;26063;-85
2021/10/09 00:43:32;;;;;;;;;;;;;;;4.47;66.40;99534.91;1618463;87;24467;-85
2021/10/09 00:45:58;;;;;;;;;;;;;;;4.42;66.48;99533.38;1618390;87;20528;-83
2021/10/09 00:48:25;;;;;;;;;;;;;;;4.39;66.56;99529.55;1618359;87;24809;-86
2021/10/09 00:50:51;;;;;;;;;;;;;;;4.38;66.63;99530.44;1618023;87;21893;-83
2021/10/09 00:53:19;;;;;;;;;;;;;;;4.33;66.73;99527.98;1618805;87;25989;-87
2021/10/09 00:55:46;;;;;;;;;;;;;;;4.28;66.83;99523.81;1605922;87;27115;-83
2021/10/09 00:58:14;;;;;;;;;;;;;;;4.26;66.93;99529.02;1617888;87;20518;-83
2021/10/09 01:00:42;;;;;;;;;;;;;;;4.23;67.03;99524.38;1618467;87;24940;-83
2021/10/09 01:03:09;;;;;;;;;;;;;;;4.21;67.12;99530.89;1618273;87;22089;-88
2021/10/09 01:05:37;;;;;;;;;;;;;;;4.20;67.22;99527.89;1630793;86;25960;-86
2021/10/09 01:08:05;;;;;;;;;;;;;;;4.18;67.31;99526.66;1627179;85;25123;-86
2021/10/09 01:10:31;;;;;;;;;;;;;;;4.18;67.40;99530.98;1626447;86;20535;-83
2021/10/09 01:12:58;;;;;;;;;;;;;;;4.14;67.50;99531.52;1629451;86;24841;-83
2021/10/09 01:15:29;;;;;;;;;;;;;;;4.10;67.60;99527.73;1641372;86;21923;-83
2021/10/09 01:17:54;;;;;;;;;;;;;;;4.09;67.68;99524.77;1636501;86;26230;-83
2021/10/09 01:20:20;;;;;;;;;;;;;;;4.12;67.77;99519.48;1644954;86;24533;-87
2021/10/09 01:22:47;;;;;;;;;;;;;;;4.17;67.89;99522.80;1634254;86;20229;-84
2021/10/09 01:25:15;;;;;;;;;;;;;;;4.20;68.00;99522.27;1642511;86;24746;-84
2021/10/09 01:27:44;;;;;;;;;;;;;;;4.16;68.06;99523.69;1634551;86;22007;-84
2021/10/09 01:30:11;;;;;;;;;;;;;;;4.11;68.12;99528.14;1640728;86;26662;-83
2021/10/09 01:32:37;;;;;;;;;;;;;;;4.08;68.19;99530.39;1635084;86;24689;-86
2021/10/09 01:35:06;;;;;;;;;;;;;;;4.04;68.30;99524.86;1666936;84;20223;-84
2021/10/09 01:37:42;;;;;;;;;;;;;;;4.01;68.36;99526.69;1632453;86;24776;-87
2021/10/09 01:40:08;;;;;;;;;;;;;;;3.98;68.43;99526.78;1644198;86;21962;-83
2021/10/09 01:42:35;;;;;;;;;;;;;;;3.93;68.51;99528.17;1641095;86;25970;-83
2021/10/09 01:45:08;;;;;;;;;;;;;;;3.92;68.58;99527.79;1637983;86;24528;-83
2021/10/09 01:47:40;;;;;;;;;;;;;;;3.88;68.66;99523.99;1634576;86;20294;-84
2021/10/09 01:50:07;;;;;;;;;;;;;;;3.87;68.73;99522.32;1629489;86;24769;-85
2021/10/09 01:52:33;;;;;;;;;;;;;;;3.91;68.80;99527.82;1630184;86;22003;-87
2021/10/09 01:55:03;;;;;;;;;;;;;;;3.91;68.90;99526.08;1665232;84;25987;-85
2021/10/09 01:57:29;;;;;;;;;;;;;;;3.89;68.96;99523.97;1637284;86;25297;-85
2021/10/09 01:59:55;;;;;;;;;;;;;;;3.88;69.04;99522.26;1639384;86;20251;-87
2021/10/09 02:02:22;;;;;;;;;;;;;;;3.82;69.08;99521.59;1634111;86;24792;-83
2021/10/09 02:04:49;;;;;;;;;;;;;;;3.76;69.14;99518.23;1634744;86;21935;-86
2021/10/09 02:07:19;;;;;;;;;;;;;;;3.73;69.19;99522.21;1631562;86;26696;-85
2021/10/09 02:09:43;;;;;;;;;;;;;;;3.73;69.24;99523.50;1626289;86;24540;-85
2021/10/09 02:12:09;;;;;;;;;;;;;;;3.69;69.31;99524.92;1630999;86;20234;-85
2021/10/09 02:27:52;;;;;;;;;;;;;;;3.50;69.77;99523.64;1628281;87;24864;-84
2021/10/09 02:30:18;;;;;;;;;;;;;;;3.48;69.87;99524.14;1630760;86;21922;-85
2021/10/09 02:32:44;;;;;;;;;;;;;;;3.50;69.96;99528.38;1640766;86;25970;-84
2021/10/09 02:35:10;;;;;;;;;;;;;;;3.54;70.05;99527.89;1637992;86;24441;-87
2021/10/09 02:37:37;;;;;;;;;;;;;;;3.55;70.14;99529.56;1630645;86;20217;-87
2021/10/09 02:40:03;;;;;;;;;;;;;;;3.56;70.21;99525.65;1634770;86;24739;-86
2021/10/09 02:42:29;;;;;;;;;;;;;;;3.63;70.31;99525.06;1629049;86;22055;-85
2021/10/09 02:44:55;;;;;;;;;;;;;;;3.79;70.42;99527.68;1624300;87;26662;-85
2021/10/09 02:47:22;;;;;;;;;;;;;;;3.95;70.56;99532.02;1634419;86;24441;-88
2021/10/09 02:49:48;;;;;;;;;;;;;;;3.97;70.65;99530.25;1635503;86;20464;-86
2021/10/09 02:52:14;;;;;;;;;;;;;;;3.95;70.71;99526.84;1627781;86;25377;-87
2021/10/09 02:54:41;;;;;;;;;;;;;;;3.93;70.75;99526.88;1624531;86;22163;-84
2021/10/09 02:57:07;;;;;;;;;;;;;;;3.93;70.78;99533.34;1634062;85;26008;-86
2021/10/09 02:59:33;;;;;;;;;;;;;;;3.99;70.83;99527.16;1630663;87;25188;-84
2021/10/09 03:01:59;;;;;;;;;;;;;;;4.08;70.90;99523.06;1634259;87;20327;-86
2021/10/09 03:04:25;;;;;;;;;;;;;;;4.07;70.96;99526.53;1637569;86;20764;-84
2021/10/09 03:06:53;;;;;;;;;;;;;;;4.05;70.98;99527.86;1632340;86;20240;-84
2021/10/09 03:09:19;;;;;;;;;;;;;;;4.03;71.04;99525.77;1636006;86;25950;-85
2021/10/09 03:11:45;;;;;;;;;;;;;;;3.95;71.04;99525.55;1636521;86;24343;-85
2021/10/09 03:14:11;;;;;;;;;;;;;;;3.78;70.99;99528.13;1628773;86;20229;-85
2021/10/09 03:16:40;;;;;;;;;;;;;;;3.74;71.00;99534.27;1635928;86;25399;-86
2021/10/09 03:19:06;;;;;;;;;;;;;;;3.72;70.99;99541.21;1629139;86;21973;-86
2021/10/09 03:21:39;;;;;;;;;;;;;;;3.65;71.00;99529.77;1633488;87;25989;-85
2021/10/09 03:24:05;;;;;;;;;;;;;;;3.54;71.02;99524.86;1627696;87;24526;-84
2021/10/09 03:26:31;;;;;;;;;;;;;;;3.40;71.01;99536.40;1632066;86;20467;-85
2021/10/09 03:28:57;;;;;;;;;;;;;;;3.24;70.98;99536.76;1630952;86;25533;-85
2021/10/09 03:31:23;;;;;;;;;;;;;;;3.16;71.00;99531.36;1624549;87;22015;-86
2021/10/09 03:33:49;;;;;;;;;;;;;;;3.10;71.00;99537.96;1626882;87;26656;-85
2021/10/09 03:36:15;;;;;;;;;;;;;;;3.16;71.09;99536.53;1632200;87;24616;-82
2021/10/09 03:38:42;;;;;;;;;;;;;;;3.10;71.16;99534.94;1634292;87;20242;-85
2021/10/09 03:41:11;;;;;;;;;;;;;;;3.04;71.22;99536.36;1633903;86;24713;-87
2021/10/09 03:43:36;;;;;;;;;;;;;;;3.08;71.32;99541.86;1629388;86;22231;-86
2021/10/09 03:53:35;;;;;;;;;;;;;;;3.17;71.67;99534.33;1625015;86;24785;-87
2021/10/09 03:56:01;;;;;;;;;;;;;;;3.25;71.79;99540.20;1630874;86;22063;-85
2021/10/09 03:58:32;;;;;;;;;;;;;;;3.29;71.91;99537.50;1638346;85;25955;-84
2021/10/09 04:00:58;;;;;;;;;;;;;;;3.28;72.02;99533.20;1630980;87;24480;-85
2021/10/09 04:03:27;;;;;;;;;;;;;;;3.19;72.05;99535.16;1635796;86;20357;-85
2021/10/09 04:05:55;;;;;;;;;;;;;;;3.14;72.11;99537.00;1635110;86;24857;-87
2021/10/09 04:08:22;;;;;;;;;;;;;;;3.13;72.16;99541.32;1620683;86;22233;-83
2021/10/09 04:10:48;;;;;;;;;;;;;;;3.12;72.19;99551.69;1624321;86;26004;-85
2021/10/09 04:13:14;;;;;;;;;;;;;;;3.08;72.23;99541.86;1630989;86;24454;-85
2021/10/09 04:15:40;;;;;;;;;;;;;;;3.03;72.29;99547.58;1624230;86;20288;-88
2021/10/09 04:18:06;;;;;;;;;;;;;;;2.95;72.32;99559.37;1628825;86;24867;-84
2021/10/09 04:20:33;;;;;;;;;;;;;;;2.83;72.34;99536.39;1627518;86;22074;-84
2021/10/09 04:23:00;;;;;;;;;;;;;;;2.84;72.41;99553.58;1629423;86;26044;-85
2021/10/09 04:25:26;;;;;;;;;;;;;;;2.77;72.44;99561.06;1626935;85;20355;-88
2021/10/09 04:28:00;;;;;;;;;;;;;;;2.72;72.49;99554.28;1629379;86;20199;-88
2021/10/09 04:30:28;;;;;;;;;;;;;;;2.72;72.54;99555.58;1657379;84;20194;-84
2021/10/09 04:32:54;;;;;;;;;;;;;;;2.77;72.65;99558.48;1612385;86;20845;-86
2021/10/09 04:35:20;;;;;;;;;;;;;;;2.81;72.72;99560.55;1630697;86;25938;-84
2021/10/09 04:37:46;;;;;;;;;;;;;;;2.75;72.81;99560.23;1626794;86;24534;-87
2021/10/09 04:40:12;;;;;;;;;;;;;;;2.69;72.87;99557.77;1624546;86;20201;-85
2021/10/09 04:42:39;;;;;;;;;;;;;;;2.66;72.92;99554.41;1627804;86;24817;-85
2021/10/09 04:45:07;;;;;;;;;;;;;;;2.57;73.00;99554.13;1632990;86;21949;-82
2021/10/09 04:47:33;;;;;;;;;;;;;;;2.55;73.02;99557.64;1630775;85;25974;-87
2021/10/09 04:50:00;;;;;;;;;;;;;;;2.52;73.10;99549.50;1627020;86;24422;-87
2021/10/09 04:52:26;;;;;;;;;;;;;;;2.51;73.17;99549.08;1629316;86;20305;-86
2021/10/09 04:54:52;;;;;;;;;;;;;;;2.51;73.25;99554.25;1635882;86;24957;-83
2021/10/09 04:57:18;;;;;;;;;;;;;;;2.49;73.34;99556.03;1629230;86;21939;-87
2021/10/09 04:59:46;;;;;;;;;;;;;;;2.54;73.42;99564.54;1631819;86;25948;-87
2021/10/09 05:02:12;;;;;;;;;;;;;;;2.59;73.52;99557.98;1629557;86;24501;-83
2021/10/09 05:04:38;;;;;;;;;;;;;;;2.68;73.63;99564.25;1632393;86;20285;-85
2021/10/09 05:07:04;;;;;;;;;;;;;;;2.71;73.75;99565.06;1621527;86;25353;-85
2021/10/09 05:09:31;;;;;;;;;;;;;;;2.67;73.82;99566.02;1633569;85;21989;-87
2021/10/09 05:11:57;;;;;;;;;;;;;;;2.62;73.87;99567.81;1632983;86;26078;-88
2021/10/09 05:14:25;;;;;;;;;;;;;;;2.59;73.92;99568.32;1636413;86;24446;-84
2021/10/09 05:16:51;;;;;;;;;;;;;;;2.54;73.96;99567.13;1622598;86;20336;-85
2021/10/09 05:19:19;;;;;;;;;;;;;;;2.57;74.03;99573.51;1622538;86;24755;-87
2021/10/09 05:21:45;;;;;;;;;;;;;;;2.62;74.08;99579.91;1616161;87;21509;-84
2021/10/09 05:24:11;;;;;;;;;;;;;;;2.66;74.16;99577.23;1619566;87;26619;-88
2021/10/09 05:26:39;;;;;;;;;;;;;;;2.76;74.25;99579.18;1623457;87;24652;-86
2021/10/09 05:29:06;;;;;;;;;;;;;;;2.83;74.34;99579.48;1611531;87;20199;-87
2021/10/09 05:31:35;;;;;;;;;;;;;;;2.90;74.42;99582.32;1599359;87;20497;-86
2021/10/09 05:34:06;;;;;;;;;;;;;;;2.96;74.51;99582.20;1619725;87;22001;-86
2021/10/09 05:36:31;;;;;;;;;;;;;;;3.05;74.60;99582.03;1614717;87;26124;-87
2021/10/09 05:38:57;;;;;;;;;;;;;;;3.20;74.68;99588.16;1614929;87;24526;-84
2021/10/09 05:41:23;;;;;;;;;;;;;;;3.29;74.78;99578.89;1620098;87;20278;-85
2021/10/09 05:43:55;;;;;;;;;;;;;;;3.44;74.85;99578.98;1622254;87;24841;-87
2021/10/09 05:46:24;;;;;;;;;;;;;;;3.59;74.93;99576.06;1622428;87;22044;-86
2021/10/09 05:48:52;;;;;;;;;;;;;;;3.65;74.99;99576.36;1622796;87;25822;-86
2021/10/09 05:51:21;;;;;;;;;;;;;;;3.65;75.00;99573.77;1623646;87;24532;-87
2021/10/09 06:32:07;;;;;;;;;;;;;;;4.19;75.18;99608.67;1637860;85;25429;-87
2021/10/09 06:47:47;;;;;;;;;;;;;;;4.27;75.06;99617.53;1629271;87;20226;-84
2021/10/09 07:00:56;;;;;;;;;;;;;;;4.37;74.93;99628.50;1617425;87;20369;-87
2021/10/09 07:03:22;;;;;;;;;;;;;;;4.31;74.90;99629.51;1630785;87;24900;-87
2021/10/09 07:05:49;;;;;;;;;;;;;;;4.28;74.85;99631.34;1626653;87;21927;-87
2021/10/09 07:08:16;;;;;;;;;;;;;;;4.27;74.81;99630.92;1615078;87;26042;-84
2021/10/09 07:10:46;;;;;;;;;;;;;;;4.31;74.81;99636.46;1626860;86;24478;-87
2021/10/09 07:13:11;;;;;;;;;;;;;;;4.35;74.85;99635.05;1617219;87;20292;-86
2021/10/09 07:15:37;;;;;;;;;;;;;;;4.30;74.80;99637.34;1608113;87;24753;-84
2021/10/09 07:18:03;;;;;;;;;;;;;;;4.28;74.77;99636.08;1611963;87;22732;-83
2021/10/09 07:20:30;;;;;;;;;;;;;;;4.32;74.77;99636.40;1617190;87;26024;-85
2021/10/09 07:22:59;;;;;;;;;;;;;;;4.35;74.76;99638.08;1615709;87;24596;-86
2021/10/09 07:25:25;;;;;;;;;;;;;;;4.39;74.77;99639.25;1619405;87;20252;-85
2021/10/09 07:27:51;;;;;;;;;;;;;;;4.49;74.82;99636.82;1620639;87;25445;-83
2021/10/09 07:30:17;;;;;;;;;;;;;;;4.55;74.86;99639.70;1615727;87;21955;-84
2021/10/09 07:32:44;;;;;;;;;;;;;;;4.61;74.91;99642.13;1608056;87;26049;-84
2021/10/09 07:35:11;;;;;;;;;;;;;;;4.66;74.94;99638.12;1608349;87;24532;-87
2021/10/09 07:37:37;;;;;;;;;;;;;;;4.73;74.96;99637.07;1614862;87;20545;-87
2021/10/09 07:40:04;;;;;;;;;;;;;;;4.78;74.98;99637.80;1620722;87;24985;-87
2021/10/09 07:42:30;;;;;;;;;;;;;;;4.81;74.97;99635.95;1612430;87;21991;-84
2021/10/09 07:44:56;;;;;;;;;;;;;;;4.82;74.96;99641.55;1615813;87;26073;-84
2021/10/09 07:47:23;;;;;;;;;;;;;;;4.85;74.95;99646.67;1620932;87;25019;-86
2021/10/09 07:49:54;;;;;;;;;;;;;;;4.90;74.92;99640.06;1606820;87;20180;-84
2021/10/09 07:52:19;;;;;;;;;;;;;;;4.96;74.92;99642.48;1594010;87;38950;-84
2021/10/09 07:54:45;;;;;;;;;;;;;;;5.03;74.92;99648.73;1612441;87;22225;-85
2021/10/09 07:57:11;;;;;;;;;;;;;;;5.11;74.90;99645.09;1616053;87;26007;-87
2021/10/09 07:59:38;;;;;;;;;;;;;;;5.20;74.90;99652.59;1612299;87;24446;-87
2021/10/09 08:02:05;;;;;;;;;;;;;;;5.30;74.93;99649.69;1619777;87;20261;-84
2021/10/09 08:04:33;;;;;;;;;;;;;;;5.40;74.94;99649.00;1617595;87;24783;-85
2021/10/09 08:06:59;;;;;;;;;;;;;;;5.48;74.95;99651.76;1614852;87;22096;-83
2021/10/09 08:09:27;;;;;;;;;;;;;;;5.59;74.95;99643.64;1610293;87;26099;-87
2021/10/09 08:11:54;;;;;;;;;;;;;;;5.65;74.94;99643.46;1612870;87;20226;-83
2021/10/09 08:14:21;;;;;;;;;;;;;;;5.68;74.89;99645.95;1605827;87;20294;-83
2021/10/09 08:16:47;;;;;;;;;;;;;;;5.69;74.81;99650.25;1609456;87;24829;-84
2021/10/09 08:19:13;;;;;;;;;;;;;;;5.71;74.68;99648.47;1615828;87;22203;-83
2021/10/09 08:21:45;;;;;;;;;;;;;;;5.78;74.61;99651.73;1609538;87;26223;-87
2021/10/09 08:26:49;;;;;;;;;;;;;;;5.88;74.46;99655.77;1611696;87;20199;-85
2021/10/09 08:40:08;;;;;;;;;;;;;;;6.20;74.12;99651.70;1609572;87;20331;-84
2021/10/09 08:42:34;;;;;;;;;;;;;;;6.28;74.07;99647.08;1609292;87;25400;-85
2021/10/09 08:45:00;;;;;;;;;;;;;;;6.34;73.94;99649.07;1612684;86;21998;-84
2021/10/09 08:47:26;;;;;;;;;;;;;;;6.40;73.89;99648.42;1612585;87;26509;-83
2021/10/09 08:49:52;;;;;;;;;;;;;;;6.48;73.83;99648.17;1616957;87;24481;-87
2021/10/09 08:52:19;;;;;;;;;;;;;;;6.59;73.77;99657.77;1621681;85;20524;-86
2021/10/09 08:54:45;;;;;;;;;;;;;;;6.68;73.74;99657.44;1612149;87;24994;-86
2021/10/09 08:57:16;;;;;;;;;;;;;;;6.72;73.64;99656.42;1618393;87;22053;-83
2021/10/09 08:59:48;;;;;;;;;;;;;;;6.76;73.49;99654.14;1612415;87;26202;-87
2021/10/09 09:02:19;;;;;;;;;;;;;;;6.85;73.41;99655.55;1622335;87;24472;-85
2021/10/09 09:05:11;;;;;;;;;;;;;;;6.94;73.30;99650.87;1627681;86;20303;-85
2021/10/09 09:32:32;;;;;;;;;;;;;;;7.60;71.80;99651.88;1622450;86;20677;-88
2021/10/09 09:35:03;;;;;;;;;;;;;;;7.63;71.55;99650.48;1620546;86;25636;-87
2021/10/09 09:37:29;;;;;;;;;;;;;;;7.67;71.26;99647.29;1620640;87;21996;-85
2021/10/09 09:39:46;;;;;;;;;;;;;;;7.77;71.11;99636.91;1595207;86;26016;-85
2021/10/09 09:42:14;;;;;;;;;;;;;;;7.86;70.96;99636.08;1597309;88;24506;-85
2021/10/09 09:44:54;;;;;;;;;;;;;;;7.96;70.82;99641.31;1623301;86;20262;-87
2021/10/09 09:47:22;;;;;;;;;;;;;;;8.02;70.64;99636.80;1623798;87;25456;-85
2021/10/09 09:49:48;;;;;;;;;;;;;;;8.07;70.41;99642.22;1608289;87;22587;-85
2021/10/09 09:52:16;;;;;;;;;;;;;;;8.11;70.21;99631.20;1619125;87;26044;-88
2021/10/09 09:54:45;;;;;;;;;;;;;;;8.14;70.01;99629.75;1613783;87;24618;-84
2021/10/09 09:57:12;;;;;;;;;;;;;;;8.16;69.77;99637.92;1610836;87;20487;-85
2021/10/09 09:59:40;;;;;;;;;;;;;;;8.26;69.55;99635.78;1608757;87;24912;-88
2021/10/09 10:02:06;;;;;;;;;;;;;;;8.32;69.38;99633.80;1613216;86;22086;-88
2021/10/09 10:04:33;;;;;;;;;;;;;;;8.39;69.17;99627.88;1613355;87;25995;-86
2021/10/09 10:07:01;;;;;;;;;;;;;;;8.45;68.97;99625.02;1642721;86;24146;-85
2021/10/09 10:09:28;;;;;;;;;;;;;;;8.56;68.83;99621.50;1612932;87;20299;-88
2021/10/09 10:12:00;;;;;;;;;;;;;;;8.67;68.71;99625.77;1609035;87;24803;-84
2021/10/09 10:14:30;;;;;;;;;;;;;;;8.74;68.54;99621.99;1617440;87;21949;-84
2021/10/09 10:17:00;;;;;;;;;;;;;;;8.78;68.23;99625.34;1615947;87;25967;-85
2021/10/09 10:19:44;;;;;;;;;;;;;;;8.77;67.86;99614.50;1621833;87;24536;-84
2021/10/09 10:22:10;;;;;;;;;;;;;;;8.79;67.40;99613.95;1621217;87;20309;-87
2021/10/09 10:24:44;;;;;;;;;;;;;;;8.82;66.97;99611.23;1616459;87;24813;-87
2021/10/09 10:27:32;;;;;;;;;;;;;;;8.93;66.69;99619.44;1610310;87;22771;-87
2021/10/09 10:30:18;;;;;;;;;;;;;;;9.02;66.43;99620.33;1627326;87;26131;-85
2021/10/09 10:32:47;;;;;;;;;;;;;;;9.06;66.04;99611.89;1609847;87;25553;-87
2021/10/09 10:35:31;;;;;;;;;;;;;;;9.16;65.80;99623.64;1616757;87;20209;-85
2021/10/09 10:40:46;;;;;;;;;;;;;;;9.24;65.17;99617.14;1624929;87;21999;-84
2021/10/09 10:43:35;;;;;;;;;;;;;;;9.24;64.72;99620.20;1611850;87;26810;-84
2021/10/09 10:46:07;;;;;;;;;;;;;;;9.28;64.35;99619.14;1620457;87;25291;-87
2021/10/09 10:48:56;;;;;;;;;;;;;;;9.30;63.98;99622.55;1621373;86;20571;-83
2021/10/09 10:51:44;;;;;;;;;;;;;;;9.32;63.59;99625.09;1613134;87;24886;-83
2021/10/09 10:54:17;;;;;;;;;;;;;;;9.31;63.13;99624.70;1616274;87;22032;-83
2021/10/09 10:57:03;;;;;;;;;;;;;;;9.32;62.70;99619.41;1619819;87;26768;-87
2021/10/09 11:02:22;;;;;;;;;;;;;;;9.39;62.12;99608.20;1612201;87;20329;-83
2021/10/09 11:04:53;;;;;;;;;;;;;;;9.46;61.83;99603.94;1620645;87;24977;-88
2021/10/09 11:07:21;;;;;;;;;;;;;;;9.57;61.71;99608.66;1609005;87;21918;-86
2021/10/09 11:09:49;;;;;;;;;;;;;;;9.61;61.51;99608.89;1614743;87;26838;-83
2021/10/09 11:12:22;;;;;;;;;;;;;;;9.66;61.33;99602.53;1618857;87;24515;-84
2021/10/09 11:14:49;;;;;;;;;;;;;;;9.71;61.13;99614.06;1616613;87;20273;-84
2021/10/09 11:17:16;;;;;;;;;;;;;;;9.76;60.87;99612.57;1617273;87;24772;-87
2021/10/09 11:19:49;;;;;;;;;;;;;;;9.81;60.71;99603.59;1622840;87;22002;-86
2021/10/09 11:22:16;;;;;;;;;;;;;;;9.82;60.52;99601.82;1617977;87;26019;-83
2021/10/09 11:24:47;;;;;;;;;;;;;;;9.80;60.29;99604.95;1615767;87;24587;-83
2021/10/09 11:27:14;;;;;;;;;;;;;;;9.75;60.03;99609.11;1616298;87;20313;-87
2021/10/09 11:29:41;;;;;;;;;;;;;;;9.77;59.80;99609.02;1617911;87;24706;-84
2021/10/09 11:32:09;;;;;;;;;;;;;;;9.83;59.72;99611.33;1617465;87;22198;-84
2021/10/09 11:34:53;;;;;;;;;;;;;;;9.87;59.63;99608.98;1618140;87;26023;-83
2021/10/09 11:37:19;;;;;;;;;;;;;;;9.86;59.43;99596.83;1618674;87;25265;-84
2021/10/09 11:39:48;;;;;;;;;;;;;;;9.95;59.31;99597.67;1618241;87;20225;-83
2021/10/09 11:42:15;;;;;;;;;;;;;;;9.91;59.10;99602.67;1606697;87;24779;-83
2021/10/09 11:44:52;;;;;;;;;;;;;;;9.88;58.81;99598.42;1620185;87;21960;-83
2021/10/09 11:55:35;;;;;;;;;;;;;;;9.95;58.08;99596.37;1615593;87;24936;-82
2021/10/09 11:58:03;;;;;;;;;;;;;;;9.95;57.84;99595.06;1615384;87;21955;-82
2021/10/09 12:00:34;;;;;;;;;;;;;;;9.91;57.59;99596.14;1622078;87;22344;-82
2021/10/09 12:03:18;;;;;;;;;;;;;;;9.90;57.40;99598.36;1619086;87;24647;-82
2021/10/09 12:05:52;;;;;;;;;;;;;;;9.87;57.19;99589.37;1618222;87;20316;-87
2021/10/09 12:08:19;;;;;;;;;;;;;;;9.84;56.97;99590.35;1610701;87;24846;-84
2021/10/09 12:11:03;;;;;;;;;;;;;;;9.84;56.78;99584.27;1626963;87;22114;-84
2021/10/09 12:13:30;;;;;;;;;;;;;;;9.87;56.64;99585.45;1626848;87;25734;-87
2021/10/09 12:16:08;;;;;;;;;;;;;;;9.87;56.48;99585.45;1638588;87;24615;-87
2021/10/09 12:18:54;;;;;;;;;;;;;;;9.86;56.33;99579.38;1625864;87;20250;-88
2021/10/09 12:21:25;;;;;;;;;;;;;;;9.90;56.21;99587.91;1622479;87;24741;-88
2021/10/09 12:23:52;;;;;;;;;;;;;;;9.93;56.14;99591.20;1619756;87;22068;-87
2021/10/09 12:26:18;;;;;;;;;;;;;;;9.97;56.09;99585.39;1631449;87;26189;-87
2021/10/09 12:29:03;;;;;;;;;;;;;;;9.99;56.03;99583.52;1632896;86;24422;-87
2021/10/09 12:31:30;;;;;;;;;;;;;;;9.99;55.95;99576.52;1596524;89;20249;-87
2021/10/09 12:33:56;;;;;;;;;;;;;;;9.95;55.74;99580.67;1595309;89;24620;-87
2021/10/09 12:36:36;;;;;;;;;;;;;;;9.92;55.57;99579.08;1626940;86;22118;-87
2021/10/09 12:39:20;;;;;;;;;;;;;;;9.95;55.49;99576.30;1638551;86;25995;-87
2021/10/09 12:41:53;;;;;;;;;;;;;;;9.94;55.36;99572.44;1639487;86;24625;-87
2021/10/09 12:44:20;;;;;;;;;;;;;;;9.98;55.31;99581.86;1642108;86;20199;-87
2021/10/09 12:46:46;;;;;;;;;;;;;;;9.98;55.24;99578.75;1637679;85;24816;-87
2021/10/09 12:49:12;;;;;;;;;;;;;;;10.03;55.19;99579.86;1647545;85;21935;-88
2021/10/09 12:51:38;;;;;;;;;;;;;;;10.08;55.20;99578.70;1637718;86;26056;-89
2021/10/09 12:54:10;;;;;;;;;;;;;;;10.08;55.09;99585.25;1636131;86;24502;-89
2021/10/09 12:56:38;;;;;;;;;;;;;;;10.06;54.94;99578.38;1636678;86;20656;-88
2021/10/09 12:59:04;;;;;;;;;;;;;;;10.06;54.87;99581.84;1647529;86;24935;-88
2021/10/09 13:01:31;;;;;;;;;;;;;;;10.03;54.73;99580.70;1636333;86;21982;-88
2021/10/09 13:04:00;;;;;;;;;;;;;;;10.06;54.67;99573.16;1636391;86;26083;-89
2021/10/09 13:06:26;;;;;;;;;;;;;;;10.09;54.62;99576.94;1629674;85;24735;-89
2021/10/09 13:08:52;;;;;;;;;;;;;;;10.09;54.53;99569.91;1636170;86;20239;-89
2021/10/09 13:11:23;;;;;;;;;;;;;;;10.10;54.49;99579.91;1631378;86;25017;-89
2021/10/09 13:13:47;;;;;;;;;;;;;;;10.07;54.41;99572.23;1643631;86;22020;-85
2021/10/09 13:16:13;;;;;;;;;;;;;;;10.06;54.27;99581.84;1628781;86;26249;-85
2021/10/09 13:18:39;;;;;;;;;;;;;;;10.02;54.10;99577.70;1633881;86;24517;-85
2021/10/09 13:21:05;;;;;;;;;;;;;;;10.04;54.04;99571.91;1645706;86;20301;-85
2021/10/09 13:23:32;;;;;;;;;;;;;;;10.05;53.97;99567.07;1630709;86;24806;-84
2021/10/09 13:25:59;;;;;;;;;;;;;;;10.07;53.95;99576.16;1645141;86;21942;-84
2021/10/09 13:28:25;;;;;;;;;;;;;;;10.04;53.85;99567.14;1640397;86;26779;-87
2021/10/09 13:30:52;;;;;;;;;;;;;;;10.04;53.80;99570.60;1636771;85;24426;-88
2021/10/09 13:33:18;;;;;;;;;;;;;;;10.02;53.75;99572.93;1625771;86;20509;-87
2021/10/09 13:35:44;;;;;;;;;;;;;;;10.04;53.75;99567.14;1632978;86;25057;-88
2021/10/09 13:38:12;;;;;;;;;;;;;;;10.06;53.76;99565.30;1623102;86;21942;-88
2021/10/09 13:40:39;;;;;;;;;;;;;;;10.03;53.68;99571.55;1638100;86;26625;-88
2021/10/09 13:43:12;;;;;;;;;;;;;;;10.00;53.61;99560.38;1624345;86;24859;-87
2021/10/09 13:45:36;;;;;;;;;;;;;;;9.99;53.57;99559.98;1642434;86;20236;-88
2021/10/09 13:48:08;;;;;;;;;;;;;;;10.01;53.58;99560.77;1640315;86;24749;-87
2021/10/09 13:50:39;;;;;;;;;;;;;;;10.04;53.61;99557.98;1625620;86;22084;-88
2021/10/09 13:53:02;;;;;;;;;;;;;;;10.05;53.63;99559.69;1627671;86;26026;-88
2021/10/09 13:55:28;;;;;;;;;;;;;;;10.02;53.59;99555.92;1632252;86;24705;-88
2021/10/09 13:57:54;;;;;;;;;;;;;;;9.99;53.54;99552.14;1641802;86;21269;-87
2021/10/09 14:00:21;;;;;;;;;;;;;;;9.89;53.44;99546.52;1636690;86;24801;-87
2021/10/09 14:02:47;;;;;;;;;;;;;;;9.95;53.39;99548.84;1643165;86;21977;-87
2021/10/09 14:05:13;;;;;;;;;;;;;;;9.93;53.38;99545.45;1629142;86;26083;-85
2021/10/09 14:07:39;;;;;;;;;;;;;;;9.91;53.29;99543.84;1627653;86;24994;-86
2021/10/09 14:10:05;;;;;;;;;;;;;;;9.91;53.27;99543.84;1645842;86;20380;-86
2021/10/09 14:12:32;;;;;;;;;;;;;;;9.89;53.22;99539.14;1629661;86;24803;-87
2021/10/09 14:14:58;;;;;;;;;;;;;;;9.87;53.18;99545.74;1627806;86;21994;-87
2021/10/09 14:17:24;;;;;;;;;;;;;;;9.86;53.14;99543.23;1632787;86;26068;-86
2021/10/09 14:19:54;;;;;;;;;;;;;;;9.86;53.13;99538.00;1631943;86;24431;-86
2021/10/09 14:22:18;;;;;;;;;;;;;;;9.84;53.18;99533.30;1633849;86;20291;-87
2021/10/09 14:24:44;;;;;;;;;;;;;;;9.84;53.18;99535.45;1640276;86;24936;-86
2021/10/09 14:27:10;;;;;;;;;;;;;;;9.84;53.16;99539.83;1630896;86;20428;-86
2021/10/09 14:29:36;;;;;;;;;;;;;;;9.80;53.11;99536.98;1637979;86;25985;-86
2021/10/09 14:32:03;;;;;;;;;;;;;;;9.91;53.11;99539.47;1634267;86;24438;-86
2021/10/09 14:34:29;;;;;;;;;;;;;;;9.97;53.09;99540.93;1630199;86;20477;-86
2021/10/09 14:36:55;;;;;;;;;;;;;;;9.95;53.06;99534.45;1642574;86;24842;-86
2021/10/09 14:39:23;;;;;;;;;;;;;;;9.92;53.00;99534.63;1631008;86;22029;-84
2021/10/09 14:41:49;;;;;;;;;;;;;;;9.87;52.91;99536.59;1626686;86;26159;-84
2021/10/09 14:44:15;;;;;;;;;;;;;;;9.82;52.83;99529.92;1629484;86;20363;-84
2021/10/09 14:47:19;;;;;;;;;;;;;;;9.80;52.75;99525.22;1640839;86;20293;-83
2021/10/09 14:49:16;;;;;;;;;;;;;;;9.77;52.68;99528.82;1635008;85;25499;-84
2021/10/09 14:51:53;;;;;;;;;;;;;;;9.74;52.62;99528.98;1638851;86;22000;-87
2021/10/09 15:02:40;;;;;;;;;;;;;;;9.60;52.34;99528.33;1637937;86;24791;-88
2021/10/09 15:18:37;;;;;;;;;;;;;;;9.38;52.18;99527.66;1633783;84;21977;-83
2021/10/09 15:21:03;;;;;;;;;;;;;;;9.34;52.20;99525.27;1618780;87;21141;-88
2021/10/09 15:23:29;;;;;;;;;;;;;;;9.33;52.22;99527.53;1630061;87;24481;-83
2021/10/09 15:25:55;;;;;;;;;;;;;;;9.31;52.24;99535.89;1627199;87;20210;-88
2021/10/09 15:28:21;;;;;;;;;;;;;;;9.27;52.28;99534.34;1618849;87;24967;-87
2021/10/09 15:30:48;;;;;;;;;;;;;;;9.22;52.29;99534.08;1619754;87;22080;-84
2021/10/09 15:33:14;;;;;;;;;;;;;;;9.19;52.30;99531.62;1620189;86;26854;-88
2021/10/09 15:35:40;;;;;;;;;;;;;;;9.17;52.33;99529.98;1631388;86;25140;-83
2021/10/09 15:38:07;;;;;;;;;;;;;;;9.14;52.33;99539.28;1626874;87;20270;-89